Time;durP1;ratioP1;P1;durP2;ratioP2;P2;SDS_P1;SDS_P2;PMS_P1;PMS_P2;Temp;Humidity;BMP_temperature;BMP_pressure;BME280_temperature;BME280_humidity;BME280_pressure;Samples;Min_cycle;Max_cycle;Signal;HPM_P1;HPM_P2
2022/11/26 00:01:37;;;;;;;26.60;12.10;;;;;;;;;;5048542;28;20028;-64
2022/11/26 00:04:02;;;;;;;23.20;11.35;;;;;;;;;;5048359;28;20096;-65
2022/11/26 00:06:33;;;;;;;22.90;11.15;;;;;;;;;;5048548;28;20131;-66
2022/11/26 00:08:59;;;;;;;31.85;12.85;;;;;;;;;;5047540;28;20486;-66
2022/11/26 00:11:24;;;;;;;30.50;12.40;;;;;;;;;;5049239;28;20036;-64
2022/11/26 00:13:49;;;;;;;20.42;11.25;;;;;;;;;;5047943;28;20025;-65
2022/11/26 00:16:15;;;;;;;27.13;11.38;;;;;;;;;;5042098;28;20024;-64
2022/11/26 00:18:40;;;;;;;23.48;11.43;;;;;;;;;;5047433;28;20047;-66
2022/11/26 00:21:14;;;;;;;30.63;12.40;;;;;;;;;;5048528;28;20056;-65
2022/11/26 00:23:39;;;;;;;26.48;11.95;;;;;;;;;;5035200;28;20017;-64
2022/11/26 00:26:11;;;;;;;24.30;11.48;;;;;;;;;;5048683;28;20222;-65
2022/11/26 00:28:37;;;;;;;26.52;12.60;;;;;;;;;;5044809;28;20494;-65
2022/11/26 00:31:04;;;;;;;32.63;12.60;;;;;;;;;;5048394;28;20033;-64
2022/11/26 00:33:30;;;;;;;30.35;12.00;;;;;;;;;;5048362;28;20017;-66
2022/11/26 00:35:57;;;;;;;32.90;12.40;;;;;;;;;;5048673;28;20040;-66
2022/11/26 00:38:22;;;;;;;25.30;12.35;;;;;;;;;;5048273;28;20075;-64
2022/11/26 00:40:48;;;;;;;28.00;11.52;;;;;;;;;;5048677;28;20423;-66
2022/11/26 00:43:14;;;;;;;30.65;11.18;;;;;;;;;;5046487;28;20586;-63
2022/11/26 00:45:39;;;;;;;26.85;12.05;;;;;;;;;;5047785;28;20455;-66
2022/11/26 00:48:05;;;;;;;26.98;12.27;;;;;;;;;;5047885;28;20101;-63
2022/11/26 00:50:32;;;;;;;29.67;11.35;;;;;;;;;;5048085;28;20332;-68
2022/11/26 00:52:58;;;;;;;25.52;11.90;;;;;;;;;;5048088;28;20057;-65
2022/11/26 00:55:27;;;;;;;24.95;12.63;;;;;;;;;;5048417;28;20441;-62
2022/11/26 00:57:52;;;;;;;21.27;11.13;;;;;;;;;;5047653;28;20028;-63
2022/11/26 01:00:19;;;;;;;29.42;12.20;;;;;;;;;;5049810;28;20028;-67
2022/11/26 01:02:44;;;;;;;27.77;11.38;;;;;;;;;;5060553;28;20083;-68
2022/11/26 01:05:10;;;;;;;26.73;12.52;;;;;;;;;;5047779;28;20020;-65
2022/11/26 01:07:35;;;;;;;27.00;12.02;;;;;;;;;;5047850;28;20043;-64
2022/11/26 01:10:00;;;;;;;28.30;12.52;;;;;;;;;;5047659;28;20430;-66
2022/11/26 01:12:26;;;;;;;26.27;10.95;;;;;;;;;;5045556;28;20025;-65
2022/11/26 01:14:51;;;;;;;30.38;12.30;;;;;;;;;;5045289;28;20017;-67
2022/11/26 01:17:17;;;;;;;26.38;11.88;;;;;;;;;;5047427;28;20092;-66
2022/11/26 01:19:42;;;;;;;25.70;11.50;;;;;;;;;;5043045;28;20123;-64
2022/11/26 01:22:17;;;;;;;23.90;12.20;;;;;;;;;;5047628;28;20374;-66
2022/11/26 01:24:42;;;;;;;25.20;11.23;;;;;;;;;;5047744;28;20036;-63
2022/11/26 01:27:09;;;;;;;33.13;12.18;;;;;;;;;;5047331;28;20017;-65
2022/11/26 01:29:35;;;;;;;28.05;12.32;;;;;;;;;;5047589;28;20047;-65
2022/11/26 01:32:00;;;;;;;32.13;11.65;;;;;;;;;;5051503;28;20110;-66
2022/11/26 01:34:26;;;;;;;25.15;11.35;;;;;;;;;;5051095;28;20037;-65
2022/11/26 01:36:51;;;;;;;29.65;12.63;;;;;;;;;;5050951;28;20025;-66
2022/11/26 01:39:18;;;;;;;27.42;12.15;;;;;;;;;;5051460;28;20100;-65
2022/11/26 01:41:55;;;;;;;28.40;12.60;;;;;;;;;;5051637;28;20032;-63
2022/11/26 01:44:22;;;;;;;30.90;11.30;;;;;;;;;;5051631;28;20051;-67
2022/11/26 01:46:47;;;;;;;43.95;13.48;;;;;;;;;;5051255;28;20021;-63
2022/11/26 01:49:16;;;;;;;26.10;12.02;;;;;;;;;;5051629;28;20016;-65
2022/11/26 01:51:41;;;;;;;23.15;12.55;;;;;;;;;;5050657;28;20020;-66
2022/11/26 01:54:06;;;;;;;25.75;13.38;;;;;;;;;;5044754;28;20075;-66
2022/11/26 01:56:37;;;;;;;32.60;13.18;;;;;;;;;;5054380;28;20096;-66
2022/11/26 01:59:16;;;;;;;29.63;12.98;;;;;;;;;;5052821;28;20090;-66
2022/11/26 02:01:41;;;;;;;26.05;12.98;;;;;;;;;;5050394;28;20106;-66
2022/11/26 02:04:10;;;;;;;34.38;13.10;;;;;;;;;;5050382;28;20372;-63
2022/11/26 02:06:35;;;;;;;29.17;14.30;;;;;;;;;;5050722;28;20041;-67
2022/11/26 02:09:02;;;;;;;32.22;13.80;;;;;;;;;;5052063;28;20031;-67
2022/11/26 02:11:27;;;;;;;33.38;13.18;;;;;;;;;;5056315;28;20108;-63
2022/11/26 02:13:54;;;;;;;34.72;13.38;;;;;;;;;;5050450;28;20444;-67
2022/11/26 02:16:38;;;;;;;27.17;13.23;;;;;;;;;;5050209;28;20052;-64
2022/11/26 02:19:09;;;;;;;35.40;14.60;;;;;;;;;;5049891;28;20041;-67
2022/11/26 02:21:35;;;;;;;29.20;12.88;;;;;;;;;;5050141;28;20101;-65
2022/11/26 02:24:20;;;;;;;33.28;13.07;;;;;;;;;;5049648;28;20051;-64
2022/11/26 02:27:03;;;;;;;34.15;13.40;;;;;;;;;;5049643;28;20117;-65
2022/11/26 02:29:47;;;;;;;32.03;14.82;;;;;;;;;;5049704;28;20376;-65
2022/11/26 02:32:16;;;;;;;29.60;14.27;;;;;;;;;;5048654;28;20028;-66
2022/11/26 02:34:45;;;;;;;37.97;13.82;;;;;;;;;;5049838;28;20025;-65
2022/11/26 02:37:13;;;;;;;29.58;13.30;;;;;;;;;;5049918;28;20017;-63
2022/11/26 02:39:39;;;;;;;31.73;14.02;;;;;;;;;;5049656;28;20364;-65
2022/11/26 02:42:24;;;;;;;36.30;13.70;;;;;;;;;;5055227;28;20021;-67
2022/11/26 02:44:51;;;;;;;31.80;13.43;;;;;;;;;;5046636;28;20036;-67
2022/11/26 02:47:17;;;;;;;27.80;12.45;;;;;;;;;;5048055;28;20017;-67
2022/11/26 02:49:44;;;;;;;31.77;13.98;;;;;;;;;;5049611;28;20029;-66
2022/11/26 02:52:10;;;;;;;34.25;13.90;;;;;;;;;;5049965;28;20367;-66
2022/11/26 02:54:36;;;;;;;31.15;13.85;;;;;;;;;;5045415;28;20907;-66
2022/11/26 02:57:04;;;;;;;37.08;13.65;;;;;;;;;;5049044;28;20021;-66
2022/11/26 02:59:29;;;;;;;30.42;13.07;;;;;;;;;;5049361;28;20013;-67
2022/11/26 03:01:55;;;;;;;26.85;13.45;;;;;;;;;;5048680;28;20025;-64
2022/11/26 03:04:27;;;;;;;32.40;13.15;;;;;;;;;;5049402;28;20025;-66
2022/11/26 03:06:55;;;;;;;35.60;14.90;;;;;;;;;;5049463;28;20116;-65
2022/11/26 03:09:21;;;;;;;32.97;14.30;;;;;;;;;;5049427;28;20021;-66
2022/11/26 03:11:47;;;;;;;30.25;14.10;;;;;;;;;;5054356;28;20025;-65
2022/11/26 03:14:12;;;;;;;35.05;15.82;;;;;;;;;;5049445;28;20085;-64
2022/11/26 03:16:37;;;;;;;39.35;16.30;;;;;;;;;;5049436;28;20169;-66
2022/11/26 03:19:02;;;;;;;32.97;15.20;;;;;;;;;;5043355;28;20021;-67
2022/11/26 03:21:27;;;;;;;37.28;15.25;;;;;;;;;;5049714;28;20021;-66
2022/11/26 03:23:53;;;;;;;37.33;16.50;;;;;;;;;;5049352;28;20470;-67
2022/11/26 03:26:18;;;;;;;33.25;14.77;;;;;;;;;;5061256;28;20024;-66
2022/11/26 03:28:43;;;;;;;31.65;14.57;;;;;;;;;;5055182;28;20538;-64
2022/11/26 03:31:08;;;;;;;29.23;15.30;;;;;;;;;;5049063;28;20101;-64
2022/11/26 03:33:34;;;;;;;31.42;14.77;;;;;;;;;;5036447;28;20025;-65
2022/11/26 03:35:59;;;;;;;32.35;14.20;;;;;;;;;;5049232;28;20162;-65
2022/11/26 03:38:24;;;;;;;29.73;14.85;;;;;;;;;;5048728;28;20040;-66
2022/11/26 03:41:01;;;;;;;26.45;13.80;;;;;;;;;;5048536;28;20063;-66
2022/11/26 03:43:26;;;;;;;31.35;14.73;;;;;;;;;;5066677;28;20398;-65
2022/11/26 03:45:52;;;;;;;28.55;14.45;;;;;;;;;;5066941;28;20021;-64
2022/11/26 03:48:17;;;;;;;27.65;14.88;;;;;;;;;;5067896;28;20017;-65
2022/11/26 03:50:42;;;;;;;35.35;14.68;;;;;;;;;;5066814;28;20119;-63
2022/11/26 03:53:07;;;;;;;28.73;14.52;;;;;;;;;;5056864;28;20410;-64
2022/11/26 03:55:33;;;;;;;39.53;15.10;;;;;;;;;;5047876;28;20021;-65
2022/11/26 03:57:58;;;;;;;30.33;14.10;;;;;;;;;;5048761;28;20040;-64
2022/11/26 04:00:23;;;;;;;36.92;14.63;;;;;;;;;;5059996;28;20081;-63
2022/11/26 04:02:48;;;;;;;35.55;13.95;;;;;;;;;;5048322;28;20047;-64
2022/11/26 04:05:14;;;;;;;33.50;14.55;;;;;;;;;;5048491;28;20108;-65
2022/11/26 04:07:39;;;;;;;40.28;14.77;;;;;;;;;;5054376;28;20157;-66
2022/11/26 04:10:04;;;;;;;30.75;12.82;;;;;;;;;;5056258;28;20020;-65
2022/11/26 04:12:30;;;;;;;31.42;14.00;;;;;;;;;;5048029;28;20039;-64
2022/11/26 04:14:55;;;;;;;35.63;13.55;;;;;;;;;;5061178;28;20082;-67
2022/11/26 04:17:20;;;;;;;36.40;13.68;;;;;;;;;;5046723;28;20033;-62
2022/11/26 04:19:45;;;;;;;28.90;12.02;;;;;;;;;;5045647;28;20019;-66
2022/11/26 04:22:11;;;;;;;31.55;13.05;;;;;;;;;;5048022;28;20482;-64
2022/11/26 04:24:36;;;;;;;34.25;13.32;;;;;;;;;;5047831;28;20521;-65
2022/11/26 04:27:01;;;;;;;27.52;13.05;;;;;;;;;;5047691;28;20027;-66
2022/11/26 04:29:27;;;;;;;36.20;12.98;;;;;;;;;;5060001;28;20619;-66
2022/11/26 04:31:52;;;;;;;31.88;13.55;;;;;;;;;;5063681;28;20021;-66
2022/11/26 04:34:17;;;;;;;32.63;13.50;;;;;;;;;;5048521;28;20057;-65
2022/11/26 04:36:42;;;;;;;32.55;14.52;;;;;;;;;;5047848;28;20094;-66
2022/11/26 04:39:07;;;;;;;39.67;12.85;;;;;;;;;;5048586;28;20471;-64
2022/11/26 04:41:33;;;;;;;33.00;12.75;;;;;;;;;;5048397;28;20159;-66
2022/11/26 04:43:58;;;;;;;28.35;14.13;;;;;;;;;;5048047;28;20028;-65
2022/11/26 04:46:23;;;;;;;31.58;14.02;;;;;;;;;;5045971;28;20021;-67
2022/11/26 04:48:48;;;;;;;34.08;13.88;;;;;;;;;;5048161;28;20587;-63
2022/11/26 04:51:13;;;;;;;30.42;14.32;;;;;;;;;;5047964;28;20017;-66
2022/11/26 04:53:39;;;;;;;34.75;13.13;;;;;;;;;;5043995;28;20025;-65
2022/11/26 04:56:04;;;;;;;28.80;12.60;;;;;;;;;;5047693;28;20510;-68
2022/11/26 04:58:29;;;;;;;27.33;12.77;;;;;;;;;;5049218;28;20038;-64
2022/11/26 05:00:54;;;;;;;43.60;14.52;;;;;;;;;;5047327;28;20534;-65
2022/11/26 05:03:20;;;;;;;28.30;13.18;;;;;;;;;;5058829;28;20028;-64
2022/11/26 05:05:46;;;;;;;30.52;12.63;;;;;;;;;;5052358;28;20028;-67
2022/11/26 05:08:11;;;;;;;35.20;13.05;;;;;;;;;;5062669;28;20020;-68
2022/11/26 05:10:36;;;;;;;37.78;14.23;;;;;;;;;;5051570;28;20021;-65
2022/11/26 05:13:01;;;;;;;36.88;14.55;;;;;;;;;;5052257;28;20598;-69
2022/11/26 05:15:26;;;;;;;31.40;14.38;;;;;;;;;;5051789;28;20035;-63
2022/11/26 05:17:52;;;;;;;33.22;13.95;;;;;;;;;;5062353;28;20028;-66
2022/11/26 05:20:17;;;;;;;34.05;14.07;;;;;;;;;;5058626;28;20037;-63
2022/11/26 05:22:42;;;;;;;31.08;13.65;;;;;;;;;;5059968;28;20035;-66
2022/11/26 05:25:08;;;;;;;32.20;13.13;;;;;;;;;;5064996;28;20065;-65
2022/11/26 05:27:33;;;;;;;34.72;14.50;;;;;;;;;;5061687;28;20013;-67
2022/11/26 05:29:58;;;;;;;36.63;15.82;;;;;;;;;;5058145;28;20045;-65
2022/11/26 05:32:24;;;;;;;41.85;14.80;;;;;;;;;;5051364;28;20021;-67
2022/11/26 05:34:49;;;;;;;34.05;15.50;;;;;;;;;;5051555;28;20099;-64
2022/11/26 05:37:14;;;;;;;47.33;16.17;;;;;;;;;;5051586;28;20021;-64
2022/11/26 05:39:39;;;;;;;37.97;16.38;;;;;;;;;;5064595;28;20079;-67
2022/11/26 05:42:05;;;;;;;49.35;17.83;;;;;;;;;;5060877;28;20021;-65
2022/11/26 05:44:30;;;;;;;39.50;16.13;;;;;;;;;;5057830;28;20025;-67
2022/11/26 05:46:55;;;;;;;37.70;17.80;;;;;;;;;;5056120;28;20098;-64
2022/11/26 05:49:21;;;;;;;53.78;19.65;;;;;;;;;;5050963;28;20087;-67
2022/11/26 05:51:46;;;;;;;40.03;15.82;;;;;;;;;;5059986;28;20017;-63
2022/11/26 05:54:12;;;;;;;49.38;17.52;;;;;;;;;;5051364;28;20086;-65
2022/11/26 05:56:37;;;;;;;38.95;17.23;;;;;;;;;;5059384;28;20028;-63
2022/11/26 05:59:03;;;;;;;40.42;15.88;;;;;;;;;;5055309;28;20025;-66
2022/11/26 06:01:28;;;;;;;36.55;17.42;;;;;;;;;;5050867;28;20390;-64
2022/11/26 06:03:53;;;;;;;38.55;16.20;;;;;;;;;;5064042;28;20446;-65
2022/11/26 06:06:18;;;;;;;41.53;15.60;;;;;;;;;;5050956;28;20025;-67
2022/11/26 06:08:44;;;;;;;40.50;16.50;;;;;;;;;;5064243;28;20109;-66
2022/11/26 06:11:10;;;;;;;42.05;15.93;;;;;;;;;;5054779;28;20021;-67
2022/11/26 06:13:35;;;;;;;38.63;16.88;;;;;;;;;;5064400;28;20039;-63
2022/11/26 06:16:00;;;;;;;44.65;18.40;;;;;;;;;;5049010;28;20025;-67
2022/11/26 06:18:25;;;;;;;39.72;17.08;;;;;;;;;;5049379;28;20032;-66
2022/11/26 06:20:51;;;;;;;39.50;16.90;;;;;;;;;;5050935;28;20017;-65
2022/11/26 06:23:16;;;;;;;40.50;16.85;;;;;;;;;;5064087;28;20024;-63
2022/11/26 06:25:41;;;;;;;34.63;16.15;;;;;;;;;;5058508;28;20020;-65
2022/11/26 06:28:06;;;;;;;34.97;16.17;;;;;;;;;;5057310;28;20665;-65
2022/11/26 06:30:32;;;;;;;47.67;16.83;;;;;;;;;;5063422;28;20036;-68
2022/11/26 06:32:57;;;;;;;42.20;15.70;;;;;;;;;;5048718;28;20603;-64
2022/11/26 06:35:22;;;;;;;45.22;17.05;;;;;;;;;;5062900;28;20485;-65
2022/11/26 06:37:47;;;;;;;38.08;15.85;;;;;;;;;;5047313;28;20035;-65
2022/11/26 06:40:17;;;;;;;38.95;15.50;;;;;;;;;;5055258;28;20023;-63
2022/11/26 06:42:46;;;;;;;38.00;16.55;;;;;;;;;;5049947;28;20035;-63
2022/11/26 06:45:11;;;;;;;37.03;15.75;;;;;;;;;;5055163;28;20032;-66
2022/11/26 06:47:37;;;;;;;40.42;15.32;;;;;;;;;;5055674;28;20344;-64
2022/11/26 06:50:02;;;;;;;41.05;16.02;;;;;;;;;;5045011;28;20339;-65
2022/11/26 06:52:27;;;;;;;37.10;15.80;;;;;;;;;;5048967;28;20023;-65
2022/11/26 06:54:53;;;;;;;43.33;16.45;;;;;;;;;;5041477;28;20036;-62
2022/11/26 06:57:18;;;;;;;52.25;17.23;;;;;;;;;;5044010;28;20031;-64
2022/11/26 06:59:43;;;;;;;42.55;17.02;;;;;;;;;;5041418;28;20009;-62
2022/11/26 07:02:09;;;;;;;36.80;14.80;;;;;;;;;;5041840;28;20013;-64
2022/11/26 07:04:34;;;;;;;48.08;16.80;;;;;;;;;;5045410;28;20082;-65
2022/11/26 07:06:59;;;;;;;41.50;16.30;;;;;;;;;;5044259;28;20013;-66
2022/11/26 07:09:24;;;;;;;32.25;15.05;;;;;;;;;;5045691;28;20021;-64
2022/11/26 07:11:50;;;;;;;37.25;14.98;;;;;;;;;;5040865;28;20372;-65
2022/11/26 07:14:15;;;;;;;39.65;16.20;;;;;;;;;;5039718;28;20017;-66
2022/11/26 07:16:40;;;;;;;39.58;15.98;;;;;;;;;;5042539;28;20454;-65
2022/11/26 07:19:05;;;;;;;39.08;16.23;;;;;;;;;;5043197;28;20406;-64
2022/11/26 07:21:30;;;;;;;37.83;15.25;;;;;;;;;;5045107;28;20032;-65
2022/11/26 07:23:57;;;;;;;39.00;14.90;;;;;;;;;;5042639;28;20104;-65
2022/11/26 07:26:22;;;;;;;42.83;15.13;;;;;;;;;;5043285;28;20036;-64
2022/11/26 07:28:47;;;;;;;48.78;16.23;;;;;;;;;;5040633;28;20087;-65
2022/11/26 07:31:14;;;;;;;27.35;14.85;;;;;;;;;;5043485;28;20036;-63
2022/11/26 07:33:40;;;;;;;49.17;14.15;;;;;;;;;;5040854;28;20024;-65
2022/11/26 07:36:06;;;;;;;34.10;14.10;;;;;;;;;;5046293;28;20029;-65
2022/11/26 07:38:32;;;;;;;43.63;14.98;;;;;;;;;;5048916;28;20017;-66
2022/11/26 07:41:04;;;;;;;44.58;15.27;;;;;;;;;;5049370;28;20063;-66
2022/11/26 07:43:30;;;;;;;52.65;15.43;;;;;;;;;;5057802;28;20360;-67
2022/11/26 07:45:55;;;;;;;33.00;13.70;;;;;;;;;;5054302;28;20494;-64
2022/11/26 07:48:20;;;;;;;45.10;14.35;;;;;;;;;;5048588;28;20446;-69
2022/11/26 07:50:46;;;;;;;39.25;14.00;;;;;;;;;;5051562;28;20355;-65
2022/11/26 07:53:11;;;;;;;29.40;12.40;;;;;;;;;;5054414;28;20476;-64
2022/11/26 07:55:37;;;;;;;34.38;13.65;;;;;;;;;;5052638;28;20100;-66
2022/11/26 07:58:02;;;;;;;33.50;14.02;;;;;;;;;;5046543;28;20048;-68
2022/11/26 08:00:28;;;;;;;43.72;13.65;;;;;;;;;;5053101;28;20181;-67
2022/11/26 08:02:53;;;;;;;42.28;14.45;;;;;;;;;;5043336;28;20017;-67
2022/11/26 08:05:18;;;;;;;30.95;13.45;;;;;;;;;;5049969;28;20021;-67
2022/11/26 08:07:43;;;;;;;33.47;13.63;;;;;;;;;;5052754;28;20032;-64
2022/11/26 08:10:09;;;;;;;37.65;13.68;;;;;;;;;;5045703;28;20036;-68
2022/11/26 08:12:34;;;;;;;42.78;13.93;;;;;;;;;;5046297;28;20017;-66
2022/11/26 08:14:59;;;;;;;37.72;12.90;;;;;;;;;;5045684;28;20012;-65
2022/11/26 08:17:25;;;;;;;34.83;13.50;;;;;;;;;;5042247;28;20029;-69
2022/11/26 08:19:50;;;;;;;36.47;12.55;;;;;;;;;;5044007;28;20390;-66
2022/11/26 08:22:15;;;;;;;31.00;13.40;;;;;;;;;;5041446;28;20534;-68
2022/11/26 08:24:40;;;;;;;36.50;12.93;;;;;;;;;;5046373;28;20498;-65
2022/11/26 08:27:06;;;;;;;32.78;12.70;;;;;;;;;;5040053;28;20129;-66
2022/11/26 08:29:31;;;;;;;36.40;12.82;;;;;;;;;;5053261;28;20017;-66
2022/11/26 08:31:56;;;;;;;30.23;13.00;;;;;;;;;;5059156;28;20017;-66
2022/11/26 08:34:21;;;;;;;32.10;13.85;;;;;;;;;;5045676;28;20009;-67
2022/11/26 08:36:47;;;;;;;31.27;12.52;;;;;;;;;;5046129;28;20044;-66
2022/11/26 08:39:16;;;;;;;29.55;11.95;;;;;;;;;;5043568;28;20029;-65
2022/11/26 08:41:41;;;;;;;25.45;11.80;;;;;;;;;;5045499;28;20081;-65
2022/11/26 08:44:06;;;;;;;26.52;12.15;;;;;;;;;;5052409;28;20100;-65
2022/11/26 08:46:32;;;;;;;29.85;12.68;;;;;;;;;;5048129;28;20025;-63
2022/11/26 08:48:57;;;;;;;32.03;12.27;;;;;;;;;;5034221;28;20013;-65
2022/11/26 08:51:23;;;;;;;33.33;11.23;;;;;;;;;;5050715;28;20116;-65
2022/11/26 08:53:48;;;;;;;27.00;11.82;;;;;;;;;;5049094;28;20017;-64
2022/11/26 08:56:13;;;;;;;29.95;11.48;;;;;;;;;;5045753;28;20013;-66
2022/11/26 08:58:40;;;;;;;32.80;12.38;;;;;;;;;;5046358;28;20037;-65
2022/11/26 09:01:09;;;;;;;28.23;10.63;;;;;;;;;;5055010;28;20438;-66
2022/11/26 09:03:34;;;;;;;32.85;12.07;;;;;;;;;;5045959;28;20020;-67
2022/11/26 09:06:00;;;;;;;39.38;11.35;;;;;;;;;;5054091;28;20026;-64
2022/11/26 09:08:26;;;;;;;40.15;10.38;;;;;;;;;;5050280;28;20478;-66
2022/11/26 09:10:52;;;;;;;29.80;10.43;;;;;;;;;;5048241;28;20016;-65
2022/11/26 09:13:18;;;;;;;24.20;9.10;;;;;;;;;;5048169;28;20082;-66
2022/11/26 09:15:43;;;;;;;38.85;11.20;;;;;;;;;;5048897;28;20021;-66
2022/11/26 09:18:08;;;;;;;20.95;9.57;;;;;;;;;;5047721;28;20020;-64
2022/11/26 09:20:33;;;;;;;24.55;9.60;;;;;;;;;;5054311;28;20104;-66
2022/11/26 09:22:59;;;;;;;20.70;8.80;;;;;;;;;;5051904;28;20025;-64
2022/11/26 09:25:24;;;;;;;27.23;9.77;;;;;;;;;;5046119;28;20090;-65
2022/11/26 09:27:49;;;;;;;26.30;8.77;;;;;;;;;;5041919;28;20013;-63
2022/11/26 09:30:15;;;;;;;26.73;9.35;;;;;;;;;;5054834;28;20356;-69
2022/11/26 09:32:40;;;;;;;30.05;9.98;;;;;;;;;;5045664;28;20510;-68
2022/11/26 09:35:05;;;;;;;27.02;9.63;;;;;;;;;;5043603;28;20436;-68
2022/11/26 09:37:31;;;;;;;29.05;9.85;;;;;;;;;;5049337;28;20029;-69
2022/11/26 09:39:56;;;;;;;26.27;9.43;;;;;;;;;;5047877;28;20020;-71
2022/11/26 09:42:21;;;;;;;50.30;22.38;;;;;;;;;;5047206;28;20486;-72
2022/11/26 09:44:54;;;;;;;25.10;9.07;;;;;;;;;;5050028;28;20031;-71
2022/11/26 09:47:21;;;;;;;25.25;9.45;;;;;;;;;;5047736;28;20104;-70
2022/11/26 09:49:54;;;;;;;30.25;9.52;;;;;;;;;;5048862;28;20025;-68
2022/11/26 09:52:21;;;;;;;20.55;8.43;;;;;;;;;;5049266;28;20033;-68
2022/11/26 09:54:48;;;;;;;27.10;8.80;;;;;;;;;;5050339;28;20514;-69
2022/11/26 09:57:20;;;;;;;30.23;8.80;;;;;;;;;;5058155;28;20017;-71
2022/11/26 09:59:47;;;;;;;21.30;7.88;;;;;;;;;;5053826;28;20483;-71
2022/11/26 10:02:12;;;;;;;26.63;8.25;;;;;;;;;;5042983;28;20596;-74
2022/11/26 10:04:39;;;;;;;33.53;9.25;;;;;;;;;;5063992;28;20036;-72
2022/11/26 10:07:15;;;;;;;23.55;8.63;;;;;;;;;;5049658;28;20028;-71
2022/11/26 10:09:49;;;;;;;21.42;8.18;;;;;;;;;;5053088;28;20107;-71
2022/11/26 10:12:33;;;;;;;17.40;7.30;;;;;;;;;;5049605;28;20021;-70
2022/11/26 10:15:12;;;;;;;19.92;6.93;;;;;;;;;;5062829;28;20458;-69
2022/11/26 10:17:54;;;;;;;27.40;7.32;;;;;;;;;;5051801;28;20500;-68
2022/11/26 10:20:22;;;;;;;19.08;6.78;;;;;;;;;;5050302;28;20049;-72
2022/11/26 10:23:06;;;;;;;19.25;7.57;;;;;;;;;;5051953;28;20025;-73
2022/11/26 10:25:38;;;;;;;19.10;5.72;;;;;;;;;;5046019;28;20025;-68
2022/11/26 10:28:11;;;;;;;18.90;6.07;;;;;;;;;;5044801;28;20636;-68
2022/11/26 10:30:36;;;;;;;20.45;6.55;;;;;;;;;;5054582;28;20025;-68
2022/11/26 10:33:05;;;;;;;21.67;5.70;;;;;;;;;;5048058;28;20040;-68
2022/11/26 10:35:31;;;;;;;15.98;5.43;;;;;;;;;;5052366;28;20081;-69
2022/11/26 10:37:57;;;;;;;22.60;5.65;;;;;;;;;;5045438;28;20051;-68
2022/11/26 10:40:30;;;;;;;20.77;5.03;;;;;;;;;;5050621;28;20250;-70
2022/11/26 10:42:58;;;;;;;20.40;5.03;;;;;;;;;;5050810;28;20025;-69
2022/11/26 10:45:26;;;;;;;24.63;5.60;;;;;;;;;;5063453;28;20029;-71
2022/11/26 10:47:51;;;;;;;22.33;4.60;;;;;;;;;;5048202;28;20510;-70
2022/11/26 10:50:21;;;;;;;20.17;5.50;;;;;;;;;;5055060;28;20077;-68
2022/11/26 10:52:47;;;;;;;16.63;4.45;;;;;;;;;;5055585;28;20033;-70
2022/11/26 10:55:26;;;;;;;19.65;5.40;;;;;;;;;;5048582;28;20048;-68
2022/11/26 10:58:05;;;;;;;15.77;4.63;;;;;;;;;;5047958;28;20025;-69
2022/11/26 11:00:38;;;;;;;14.88;5.03;;;;;;;;;;5052754;28;20055;-70
2022/11/26 11:03:34;;;;;;;20.95;4.95;;;;;;;;;;5051372;28;20108;-71
2022/11/26 11:06:10;;;;;;;16.13;5.10;;;;;;;;;;5037786;28;20040;-71
2022/11/26 11:08:35;;;;;;;19.13;5.38;;;;;;;;;;5050092;28;20021;-67
2022/11/26 11:11:01;;;;;;;26.13;5.45;;;;;;;;;;5048735;28;20059;-71
2022/11/26 11:13:40;;;;;;;12.32;3.72;;;;;;;;;;5047507;28;20017;-70
2022/11/26 11:16:06;;;;;;;22.77;5.43;;;;;;;;;;5046839;28;20060;-70
2022/11/26 11:18:34;;;;;;;14.35;5.63;;;;;;;;;;5040088;28;20039;-70
2022/11/26 11:21:02;;;;;;;17.85;4.60;;;;;;;;;;5042643;28;20017;-71
2022/11/26 11:23:29;;;;;;;15.05;4.15;;;;;;;;;;5039561;28;20025;-70
2022/11/26 11:25:58;;;;;;;25.23;6.93;;;;;;;;;;5038433;28;20021;-72
2022/11/26 11:28:24;;;;;;;12.57;4.68;;;;;;;;;;5039858;28;20024;-70
2022/11/26 11:31:15;;;;;;;10.82;4.25;;;;;;;;;;5041522;28;20060;-71
2022/11/26 11:33:41;;;;;;;23.45;5.10;;;;;;;;;;5036662;28;20032;-68
2022/11/26 11:36:12;;;;;;;24.02;5.45;;;;;;;;;;5040624;28;20431;-70
2022/11/26 11:38:54;;;;;;;13.45;4.45;;;;;;;;;;5040221;28;20079;-71
2022/11/26 11:41:40;;;;;;;15.15;4.15;;;;;;;;;;5040033;28;20163;-70
2022/11/26 11:44:16;;;;;;;14.32;5.05;;;;;;;;;;5037776;28;20098;-68
2022/11/26 11:46:45;;;;;;;16.15;4.72;;;;;;;;;;5039910;28;20029;-70
2022/11/26 11:49:25;;;;;;;22.25;4.25;;;;;;;;;;5042122;28;20013;-69
2022/11/26 11:51:59;;;;;;;11.52;4.18;;;;;;;;;;5040864;28;20049;-68
2022/11/26 11:54:29;;;;;;;14.93;4.35;;;;;;;;;;5040046;28;20107;-68
2022/11/26 11:57:00;;;;;;;22.15;5.07;;;;;;;;;;5039576;28;20481;-69
2022/11/26 11:59:57;;;;;;;15.20;5.53;;;;;;;;;;5039760;28;20049;-70
2022/11/26 12:02:22;;;;;;;13.57;5.78;;;;;;;;;;5038342;28;20478;-67
2022/11/26 12:04:56;;;;;;;18.08;5.40;;;;;;;;;;5037796;28;20040;-67
2022/11/26 12:07:35;;;;;;;22.10;4.88;;;;;;;;;;5042584;28;20023;-69
2022/11/26 12:10:09;;;;;;;19.40;5.28;;;;;;;;;;5059283;28;20040;-69
2022/11/26 12:12:35;;;;;;;26.13;5.90;;;;;;;;;;5046309;28;20020;-68
2022/11/26 12:15:19;;;;;;;22.58;6.30;;;;;;;;;;5044606;28;20059;-66
2022/11/26 12:17:56;;;;;;;19.73;5.75;;;;;;;;;;5055943;28;20119;-68
2022/11/26 12:20:43;;;;;;;22.15;6.10;;;;;;;;;;5037133;28;20033;-70
2022/11/26 12:23:18;;;;;;;16.40;4.65;;;;;;;;;;5042426;28;20114;-70
2022/11/26 12:25:46;;;;;;;22.95;5.40;;;;;;;;;;5038872;28;21183;-70
2022/11/26 12:28:21;;;;;;;27.85;5.97;;;;;;;;;;5041096;28;20025;-67
2022/11/26 12:31:04;;;;;;;19.55;5.20;;;;;;;;;;5046797;28;20833;-71
2022/11/26 12:33:29;;;;;;;15.32;4.78;;;;;;;;;;5048083;28;20116;-70
2022/11/26 12:36:02;;;;;;;19.25;5.43;;;;;;;;;;5052977;28;20382;-67
2022/11/26 12:38:30;;;;;;;13.85;4.88;;;;;;;;;;5045487;28;20542;-69
2022/11/26 12:40:59;;;;;;;19.15;4.88;;;;;;;;;;5044496;28;20055;-68
2022/11/26 12:43:34;;;;;;;18.10;4.15;;;;;;;;;;5049773;28;20498;-66
2022/11/26 12:45:59;;;;;;;18.05;4.22;;;;;;;;;;5046106;28;20040;-68
2022/11/26 12:48:43;;;;;;;14.15;3.75;;;;;;;;;;5051846;28;20029;-67
2022/11/26 12:51:14;;;;;;;18.23;4.40;;;;;;;;;;5046610;28;20124;-67
2022/11/26 12:53:50;;;;;;;19.05;5.10;;;;;;;;;;5047006;28;20077;-69
2022/11/26 12:56:19;;;;;;;30.20;4.03;;;;;;;;;;5044690;28;20048;-70
2022/11/26 12:58:44;;;;;;;16.07;4.50;;;;;;;;;;5044477;28;20033;-71
2022/11/26 13:01:10;;;;;;;15.60;3.55;;;;;;;;;;5047452;28;20403;-71
2022/11/26 13:03:35;;;;;;;14.95;3.30;;;;;;;;;;5047355;28;20017;-72
2022/11/26 13:06:23;;;;;;;15.40;3.88;;;;;;;;;;5055656;28;20044;-69
2022/11/26 13:08:58;;;;;;;11.93;3.53;;;;;;;;;;5044688;28;20478;-68
2022/11/26 13:11:30;;;;;;;13.63;3.38;;;;;;;;;;5047250;28;20055;-66
2022/11/26 13:14:08;;;;;;;14.70;3.55;;;;;;;;;;5046905;28;20020;-70
2022/11/26 13:16:37;;;;;;;15.77;4.47;;;;;;;;;;5046887;28;20021;-74
2022/11/26 13:19:26;;;;;;;12.85;3.88;;;;;;;;;;5046609;28;20021;-72
2022/11/26 13:22:03;;;;;;;22.08;4.50;;;;;;;;;;5052292;28;20033;-70
2022/11/26 13:24:28;;;;;;;13.60;3.65;;;;;;;;;;5046231;28;20028;-71
2022/11/26 13:26:57;;;;;;;13.70;3.67;;;;;;;;;;5050315;28;20104;-69
2022/11/26 13:29:39;;;;;;;14.20;4.40;;;;;;;;;;5054776;28;20021;-70
2022/11/26 13:32:18;;;;;;;15.10;4.00;;;;;;;;;;5054600;28;20032;-69
2022/11/26 13:34:49;;;;;;;14.68;3.92;;;;;;;;;;5050621;28;20514;-72
2022/11/26 13:37:38;;;;;;;14.75;4.13;;;;;;;;;;5043528;28;20033;-68
2022/11/26 13:40:03;;;;;;;;;;;;;;;;;;5054330;28;20047;-70
2022/11/26 13:42:54;;;;;;;10.18;3.45;;;;;;;;;;5047277;28;19908;-68
2022/11/26 13:45:35;;;;;;;19.45;4.43;;;;;;;;;;5018565;28;20419;-69
2022/11/26 13:48:11;;;;;;;16.58;3.85;;;;;;;;;;5051705;28;20374;-72
2022/11/26 13:50:51;;;;;;;13.60;5.05;;;;;;;;;;5047167;28;20111;-73
2022/11/26 13:53:20;;;;;;;18.92;3.63;;;;;;;;;;5049934;28;20025;-65
2022/11/26 13:55:49;;;;;;;16.13;4.22;;;;;;;;;;5051484;28;20431;-72
2022/11/26 13:58:23;;;;;;;27.10;5.28;;;;;;;;;;5053817;28;20079;-71
2022/11/26 14:00:49;;;;;;;23.17;4.63;;;;;;;;;;5060538;28;20039;-71
2022/11/26 14:03:32;;;;;;;15.93;4.43;;;;;;;;;;5050239;28;20167;-73
2022/11/26 14:06:05;;;;;;;19.92;4.05;;;;;;;;;;5063275;28;20024;-73
2022/11/26 14:08:33;;;;;;;17.23;4.85;;;;;;;;;;5050041;28;20036;-73
2022/11/26 14:10:58;;;;;;;18.50;4.05;;;;;;;;;;5063623;28;20017;-70
2022/11/26 14:13:23;;;;;;;14.90;4.40;;;;;;;;;;5046190;28;20025;-71
2022/11/26 14:15:50;;;;;;;18.75;4.25;;;;;;;;;;5043478;28;20017;-72
2022/11/26 14:18:16;;;;;;;25.48;4.05;;;;;;;;;;5042218;28;20025;-70
2022/11/26 14:21:04;;;;;;;14.65;4.47;;;;;;;;;;5044722;28;20021;-68
2022/11/26 14:23:42;;;;;;;16.65;5.05;;;;;;;;;;5037274;28;20470;-72
2022/11/26 14:26:16;;;;;;;15.50;4.80;;;;;;;;;;5042438;28;20559;-69
2022/11/26 14:28:41;;;;;;;23.40;5.60;;;;;;;;;;5043869;28;20084;-71